createdAt,value
2019-04-07T00:00:27.751Z,100.00
2019-04-07T00:02:56.842Z,100.00
2019-04-07T00:05:25.625Z,100.00
2019-04-07T00:07:54.243Z,100.00
2019-04-07T00:10:22.540Z,100.00
2019-04-07T00:12:50.938Z,100.00
2019-04-07T00:15:19.378Z,100.00
2019-04-07T00:17:47.739Z,100.00
2019-04-07T00:20:16.286Z,100.00
2019-04-07T00:22:44.583Z,100.00
2019-04-07T00:25:13.430Z,100.00
2019-04-07T00:27:41.781Z,100.00
2019-04-07T00:30:10.750Z,100.00
2019-04-07T00:32:39.098Z,100.00
2019-04-07T00:35:07.784Z,100.00
2019-04-07T00:37:36.325Z,100.00
2019-04-07T00:40:07.052Z,100.00
2019-04-07T00:42:35.406Z,100.00
2019-04-07T00:45:05.260Z,100.00
2019-04-07T00:47:33.955Z,100.00
2019-04-07T00:50:03.021Z,100.00
2019-04-07T00:52:31.409Z,100.00
2019-04-07T00:54:59.702Z,100.00
2019-04-07T00:57:28.585Z,100.00
2019-04-07T00:59:57.157Z,100.00
2019-04-07T01:02:26.025Z,100.00
2019-04-07T01:04:55.045Z,100.00
2019-04-07T01:07:23.591Z,100.00
2019-04-07T01:09:51.890Z,100.00
2019-04-07T01:12:20.419Z,100.00
2019-04-07T01:14:49.190Z,100.00
2019-04-07T01:17:17.894Z,100.00
2019-04-07T01:19:46.474Z,100.00
2019-04-07T01:22:15.442Z,100.00
2019-04-07T01:24:44.099Z,100.00
2019-04-07T01:27:12.452Z,100.00
2019-04-07T01:29:41.985Z,100.00
2019-04-07T01:32:10.351Z,100.00
2019-04-07T01:34:39.365Z,100.00
2019-04-07T01:37:07.744Z,100.00
2019-04-07T01:39:36.141Z,100.00
2019-04-07T01:42:09.176Z,100.00
2019-04-07T01:44:42.070Z,100.00
2019-04-07T01:47:17.786Z,100.00
2019-04-07T01:50:03.087Z,100.00
2019-04-07T01:52:33.734Z,100.00
2019-04-07T01:55:16.329Z,100.00
2019-04-07T01:57:49.261Z,100.00
2019-04-07T02:00:19.223Z,100.00
2019-04-07T02:02:49.416Z,100.00
2019-04-07T02:05:35.308Z,100.00
2019-04-07T02:08:14.524Z,100.00
2019-04-07T02:10:59.917Z,100.00
2019-04-07T02:13:39.288Z,100.00
2019-04-07T02:16:16.000Z,100.00
2019-04-07T02:19:03.671Z,100.00
2019-04-07T02:21:33.778Z,100.00
2019-04-07T02:24:19.204Z,100.00
2019-04-07T02:26:58.668Z,100.00
2019-04-07T02:29:44.826Z,100.00
2019-04-07T02:32:15.284Z,100.00
2019-04-07T02:34:49.103Z,100.00
2019-04-07T02:37:22.685Z,100.00
2019-04-07T02:39:52.792Z,100.00
2019-04-07T02:42:22.893Z,100.00
2019-04-07T02:45:11.145Z,100.00
2019-04-07T02:47:57.721Z,100.00
2019-04-07T02:50:40.026Z,100.00
2019-04-07T02:53:11.049Z,100.00
2019-04-07T02:55:42.020Z,100.00
2019-04-07T02:58:15.748Z,100.00
2019-04-07T03:00:48.887Z,100.00
2019-04-07T03:03:31.214Z,100.00
2019-04-07T03:06:01.958Z,100.00
2019-04-07T03:08:49.148Z,100.00
2019-04-07T03:11:20.134Z,100.00
2019-04-07T03:13:54.390Z,100.00
2019-04-07T03:16:39.539Z,100.00
2019-04-07T03:19:13.202Z,100.00
2019-04-07T03:21:46.846Z,100.00
2019-04-07T03:24:17.115Z,100.00
2019-04-07T03:27:04.015Z,100.00
2019-04-07T03:29:49.939Z,100.00
2019-04-07T03:32:27.560Z,100.00
2019-04-07T03:35:14.971Z,100.00
2019-04-07T03:37:47.198Z,100.00
2019-04-07T03:40:19.932Z,100.00
2019-04-07T03:42:51.163Z,100.00
2019-04-07T03:45:22.125Z,100.00
2019-04-07T03:47:55.119Z,100.00
2019-04-07T03:50:36.998Z,100.00
2019-04-07T03:53:24.297Z,100.00
2019-04-07T03:56:00.630Z,100.00
2019-04-07T03:58:39.786Z,100.00
2019-04-07T04:01:27.159Z,100.00
2019-04-07T04:04:07.436Z,100.00
2019-04-07T04:06:54.508Z,100.00
2019-04-07T04:09:37.081Z,100.00
2019-04-07T04:12:22.750Z,100.00
2019-04-07T04:15:09.101Z,100.00
2019-04-07T04:17:37.540Z,100.00
2019-04-07T04:20:07.106Z,100.00
2019-04-07T04:22:37.748Z,100.00
2019-04-07T04:25:08.498Z,100.00
2019-04-07T04:27:38.799Z,100.00
2019-04-07T04:30:10.471Z,100.00
2019-04-07T04:32:39.762Z,100.00
2019-04-07T04:35:08.550Z,100.00
2019-04-07T04:37:45.771Z,100.00
2019-04-07T04:40:07.767Z,100.00
2019-04-07T04:42:36.065Z,100.00
2019-04-07T04:45:06.831Z,100.00
2019-04-07T04:47:35.169Z,100.00
2019-04-07T04:50:06.670Z,100.00
2019-04-07T04:52:36.293Z,100.00
2019-04-07T04:55:05.618Z,100.00
2019-04-07T04:57:34.884Z,100.00
2019-04-07T05:00:06.217Z,100.00
2019-04-07T05:02:34.795Z,100.00
2019-04-07T05:05:06.312Z,100.00
2019-04-07T05:07:47.884Z,100.00
2019-04-07T05:10:05.705Z,100.00
2019-04-07T05:12:34.091Z,100.00
2019-04-07T05:15:02.399Z,100.00
2019-04-07T05:17:31.140Z,100.00
2019-04-07T05:20:00.200Z,100.00
2019-04-07T05:22:29.132Z,100.00
2019-04-07T05:24:57.882Z,100.00
2019-04-07T05:27:27.583Z,100.00
2019-04-07T05:29:56.711Z,100.00
2019-04-07T05:32:25.269Z,100.00
2019-04-07T05:34:53.559Z,100.00
2019-04-07T05:37:22.029Z,100.00
2019-04-07T05:39:50.387Z,100.00
2019-04-07T05:42:18.942Z,100.00
2019-04-07T05:44:47.612Z,100.00
2019-04-07T05:47:17.173Z,100.00
2019-04-07T05:49:45.500Z,100.00
2019-04-07T05:52:13.948Z,100.00
2019-04-07T05:54:42.872Z,100.00
2019-04-07T05:57:11.828Z,100.00
2019-04-07T05:59:42.211Z,100.00
2019-04-07T06:02:11.106Z,100.00
2019-04-07T06:04:40.379Z,100.00
2019-04-07T06:07:09.065Z,100.00
2019-04-07T06:09:37.441Z,100.00
2019-04-07T06:12:09.597Z,100.00
2019-04-07T06:14:36.787Z,100.00
2019-04-07T06:17:05.437Z,100.00
2019-04-07T06:19:37.384Z,100.00
2019-04-07T06:22:04.839Z,100.00
2019-04-07T06:24:35.091Z,100.00
2019-04-07T06:27:03.460Z,100.00
2019-04-07T06:29:31.780Z,100.00
2019-04-07T06:32:03.677Z,100.00
2019-04-07T06:34:30.492Z,100.00
2019-04-07T06:36:59.005Z,100.00
2019-04-07T06:39:27.692Z,100.00
2019-04-07T06:41:58.933Z,100.00
2019-04-07T06:44:26.404Z,100.00
2019-04-07T06:46:59.964Z,100.00
2019-04-07T06:49:29.479Z,100.00
2019-04-07T06:52:05.466Z,100.00
2019-04-07T06:54:41.475Z,100.00
2019-04-07T07:00:30.515Z,100.00
2019-04-07T07:03:04.345Z,100.00
2019-04-07T07:05:46.290Z,100.00
2019-04-07T07:08:42.477Z,100.00
2019-04-07T07:11:27.995Z,100.00
2019-04-07T07:14:06.202Z,100.00
2019-04-07T07:16:46.736Z,100.00
2019-04-07T07:19:35.101Z,100.00
2019-04-07T07:22:16.041Z,100.00
2019-04-07T07:24:46.763Z,100.00
2019-04-07T07:27:15.366Z,100.00
2019-04-07T07:29:45.986Z,100.00
2019-04-07T07:32:13.783Z,100.00
2019-04-07T07:34:43.288Z,100.00
2019-04-07T07:37:12.663Z,100.00
2019-04-07T07:39:42.649Z,100.00
2019-04-07T07:42:12.187Z,100.00
2019-04-07T07:44:40.573Z,100.00
2019-04-07T07:47:09.235Z,100.00
2019-04-07T07:49:40.328Z,100.00
2019-04-07T07:52:07.685Z,100.00
2019-04-07T07:54:36.784Z,100.00
2019-04-07T07:57:05.249Z,100.00
2019-04-07T07:59:38.037Z,100.00
2019-04-07T08:02:04.164Z,100.00
2019-04-07T08:04:32.536Z,100.00
2019-04-07T08:07:02.586Z,100.00
2019-04-07T08:09:31.718Z,100.00
2019-04-07T08:12:02.411Z,100.00
2019-04-07T08:14:30.415Z,100.00
2019-04-07T08:17:02.256Z,100.00
2019-04-07T08:19:30.514Z,100.00
2019-04-07T08:21:59.654Z,100.00
2019-04-07T08:24:28.299Z,100.00
2019-04-07T08:26:58.360Z,100.00
2019-04-07T08:29:27.028Z,100.00
2019-04-07T08:31:56.564Z,100.00
2019-04-07T08:34:25.523Z,100.00
2019-04-07T08:36:54.282Z,100.00
2019-04-07T08:39:25.595Z,100.00
2019-04-07T08:41:52.904Z,99.96
2019-04-07T08:44:21.592Z,100.00
2019-04-07T08:46:50.827Z,100.00
2019-04-07T08:49:23.610Z,100.00
2019-04-07T08:51:50.582Z,99.85
2019-04-07T08:54:19.112Z,100.00
2019-04-07T08:56:48.042Z,97.28
2019-04-07T08:59:17.316Z,98.89
2019-04-07T09:01:46.968Z,98.16
2019-04-07T09:04:17.522Z,100.00
2019-04-07T09:06:46.026Z,100.00
2019-04-07T09:09:15.692Z,97.32
2019-04-07T09:11:44.207Z,95.86
2019-04-07T09:14:14.660Z,98.18
2019-04-07T09:16:59.188Z,98.18
2019-04-07T09:19:34.962Z,94.81
2019-04-07T09:22:23.132Z,89.05
2019-04-07T09:24:56.721Z,90.17
2019-04-07T09:27:27.090Z,88.01
2019-04-07T09:30:10.057Z,86.70
2019-04-07T09:32:43.859Z,85.34
2019-04-07T09:35:22.883Z,85.34
2019-04-07T09:38:00.963Z,86.56
2019-04-07T09:40:48.666Z,94.85
2019-04-07T09:43:35.826Z,94.85
2019-04-07T09:46:10.359Z,89.73
2019-04-07T09:48:41.428Z,87.81
2019-04-07T09:51:17.661Z,86.77
2019-04-07T09:53:50.372Z,83.69
2019-04-07T09:56:27.195Z,87.97
2019-04-07T09:59:15.112Z,88.79
2019-04-07T10:01:46.282Z,81.56
2019-04-07T10:04:16.306Z,82.71
2019-04-07T10:06:58.196Z,85.31
2019-04-07T10:09:28.382Z,81.85
2019-04-07T10:12:08.096Z,81.38
2019-04-07T10:14:43.989Z,80.37
2019-04-07T10:17:19.616Z,77.10
2019-04-07T10:19:52.705Z,81.18
2019-04-07T10:22:39.569Z,79.02
2019-04-07T10:25:10.779Z,77.25
2019-04-07T10:27:40.881Z,75.62
2019-04-07T10:30:11.490Z,78.61
2019-04-07T10:32:41.776Z,79.61
2019-04-07T10:35:28.462Z,82.74
2019-04-07T10:37:58.377Z,85.28
2019-04-07T10:40:44.395Z,76.52
2019-04-07T10:43:31.345Z,75.33
2019-04-07T10:46:14.703Z,72.42
2019-04-07T10:48:45.669Z,70.42
2019-04-07T10:51:15.719Z,68.40
2019-04-07T10:54:02.553Z,70.68
2019-04-07T10:56:45.076Z,66.34
2019-04-07T10:59:30.918Z,69.15
2019-04-07T11:02:18.008Z,72.96
2019-04-07T11:05:00.664Z,67.88
2019-04-07T11:07:30.690Z,65.87
2019-04-07T11:10:01.218Z,69.15
2019-04-07T11:12:34.648Z,71.41
2019-04-07T11:15:08.177Z,71.11
2019-04-07T11:17:41.966Z,71.05
2019-04-07T11:20:17.975Z,69.49
2019-04-07T11:22:57.548Z,68.24
2019-04-07T11:25:37.111Z,69.97
2019-04-07T11:28:22.594Z,61.30
2019-04-07T11:31:02.219Z,55.72
2019-04-07T11:33:33.017Z,57.97
2019-04-07T11:36:11.706Z,63.79
2019-04-07T11:38:48.342Z,65.57
2019-04-07T11:41:23.584Z,67.40
2019-04-07T11:43:56.238Z,68.10
2019-04-07T11:46:43.208Z,68.10
2019-04-07T11:49:16.073Z,67.48
2019-04-07T11:51:46.739Z,59.69
2019-04-07T11:54:29.499Z,56.71
2019-04-07T11:57:02.286Z,53.14
2019-04-07T11:59:37.850Z,54.62
2019-04-07T12:02:19.835Z,57.09
2019-04-07T12:04:57.812Z,53.25
2019-04-07T12:07:45.899Z,52.71
2019-04-07T12:10:31.736Z,54.86
2019-04-07T12:13:08.031Z,51.87
2019-04-07T12:15:38.742Z,52.39
2019-04-07T12:18:11.721Z,43.73
2019-04-07T12:20:42.066Z,47.74
2019-04-07T12:23:15.916Z,48.74
2019-04-07T12:26:02.133Z,47.87
2019-04-07T12:28:31.417Z,47.13
2019-04-07T12:31:05.310Z,49.43
2019-04-07T12:33:44.724Z,47.42
2019-04-07T12:36:32.066Z,49.89
2019-04-07T12:39:02.879Z,46.37
2019-04-07T12:41:39.090Z,42.70
2019-04-07T12:44:17.765Z,48.30
2019-04-07T12:46:57.136Z,45.64
2019-04-07T12:49:27.101Z,42.29
2019-04-07T12:52:12.806Z,39.88
2019-04-07T12:54:59.371Z,45.62
2019-04-07T13:00:13.494Z,44.40
2019-04-07T13:02:51.661Z,45.48
2019-04-07T13:05:29.952Z,45.82
2019-04-07T13:08:06.050Z,46.58
2019-04-07T13:10:42.986Z,46.83
2019-04-07T13:16:07.971Z,46.60
2019-04-07T13:18:54.474Z,45.08
2019-04-07T13:21:25.053Z,45.37
2019-04-07T13:23:56.013Z,42.63
2019-04-07T13:26:38.903Z,36.22
2019-04-07T13:29:09.642Z,37.90
2019-04-07T13:31:42.892Z,37.39
2019-04-07T13:34:18.916Z,35.26
2019-04-07T13:36:51.659Z,41.08
2019-04-07T13:39:21.251Z,38.19
2019-04-07T13:41:55.741Z,41.63
2019-04-07T13:44:45.560Z,41.79
2019-04-07T13:47:23.155Z,35.43
2019-04-07T13:49:57.319Z,38.71
2019-04-07T13:52:25.385Z,38.34
2019-04-07T13:54:55.843Z,35.41
2019-04-07T13:57:44.024Z,36.78
2019-04-07T14:00:29.512Z,39.37
2019-04-07T14:03:21.091Z,37.49
2019-04-07T14:06:06.870Z,36.79
2019-04-07T14:08:37.169Z,43.57
2019-04-07T14:11:22.018Z,43.01
2019-04-07T14:14:01.314Z,43.48
2019-04-07T14:16:34.667Z,42.50
2019-04-07T14:19:14.654Z,41.65
2019-04-07T14:22:00.516Z,39.27
2019-04-07T14:24:46.117Z,40.61
2019-04-07T14:27:25.217Z,37.90
2019-04-07T14:29:55.973Z,39.07
2019-04-07T14:32:26.266Z,41.27
2019-04-07T14:35:02.336Z,39.65
2019-04-07T14:37:32.957Z,37.27
2019-04-07T14:40:03.782Z,37.28
2019-04-07T14:42:35.040Z,34.32
2019-04-07T14:45:09.460Z,35.98
2019-04-07T14:47:43.605Z,36.40
2019-04-07T14:50:14.524Z,36.46
2019-04-07T14:52:44.811Z,38.42
2019-04-07T14:55:20.734Z,36.82
2019-04-07T14:57:53.648Z,38.62
2019-04-07T15:00:28.047Z,34.26
2019-04-07T15:02:56.603Z,34.70
2019-04-07T15:05:26.618Z,34.10
2019-04-07T15:08:15.221Z,34.37
2019-04-07T15:10:48.420Z,36.70
2019-04-07T15:13:19.259Z,34.69
2019-04-07T15:15:51.049Z,34.69
2019-04-07T15:18:18.750Z,37.23
2019-04-07T15:20:47.324Z,35.46
2019-04-07T15:23:16.533Z,35.46
2019-04-07T15:25:47.022Z,35.51
2019-04-07T15:28:15.478Z,33.04
2019-04-07T15:30:47.888Z,33.44
2019-04-07T15:33:13.784Z,36.15
2019-04-07T15:35:45.076Z,36.23
2019-04-07T15:38:12.126Z,36.11
2019-04-07T15:40:40.778Z,36.32
2019-04-07T15:43:11.274Z,37.59
2019-04-07T15:45:39.692Z,39.94
2019-04-07T15:48:09.223Z,37.08
2019-04-07T15:50:38.180Z,37.66
2019-04-07T15:53:07.256Z,40.18
2019-04-07T15:55:46.420Z,39.52
2019-04-07T15:58:05.788Z,38.07
2019-04-07T16:00:35.282Z,40.84
2019-04-07T16:03:04.305Z,37.99
2019-04-07T16:05:39.145Z,40.73
2019-04-07T16:08:02.946Z,35.52
2019-04-07T16:10:31.368Z,38.93
2019-04-07T16:12:59.950Z,36.77
2019-04-07T16:15:28.268Z,39.23
2019-04-07T16:17:58.805Z,40.64
2019-04-07T16:20:32.306Z,39.32
2019-04-07T16:22:57.589Z,38.33
2019-04-07T16:25:27.897Z,40.32
2019-04-07T16:27:56.615Z,36.30
2019-04-07T16:30:25.877Z,35.95
2019-04-07T16:32:54.786Z,37.02
2019-04-07T16:35:23.191Z,37.85
2019-04-07T16:37:52.089Z,38.38
2019-04-07T16:40:20.653Z,39.00
2019-04-07T16:43:04.440Z,38.55
2019-04-07T16:45:19.414Z,39.43
2019-04-07T16:47:47.895Z,37.74
2019-04-07T16:50:18.977Z,38.29
2019-04-07T16:52:47.139Z,37.79
2019-04-07T16:55:37.235Z,38.53
2019-04-07T16:58:07.345Z,40.23
2019-04-07T17:00:35.727Z,41.33
2019-04-07T17:03:05.570Z,39.94
2019-04-07T17:05:34.288Z,39.94
2019-04-07T17:08:02.756Z,41.23
2019-04-07T17:10:34.092Z,42.51
2019-04-07T17:13:05.430Z,43.33
2019-04-07T17:15:31.741Z,44.96
2019-04-07T17:18:00.260Z,47.37
2019-04-07T17:20:33.309Z,50.01
2019-04-07T17:22:58.866Z,51.28
2019-04-07T17:25:27.621Z,53.25
2019-04-07T17:28:00.430Z,54.30
2019-04-07T17:30:28.061Z,53.82
2019-04-07T17:32:56.641Z,54.99
2019-04-07T17:35:24.959Z,58.85
2019-04-07T17:37:56.565Z,64.95
2019-04-07T17:40:26.702Z,70.77
2019-04-07T17:42:56.934Z,74.97
2019-04-07T17:45:29.800Z,76.43
2019-04-07T17:48:09.802Z,77.16
2019-04-07T17:50:49.784Z,77.45
2019-04-07T17:53:26.499Z,77.47
2019-04-07T17:56:19.795Z,81.09
2019-04-07T17:58:56.687Z,82.60
2019-04-07T18:01:31.254Z,83.20
2019-04-07T18:04:17.554Z,85.02
2019-04-07T18:06:47.576Z,86.27
2019-04-07T18:09:26.660Z,88.49
2019-04-07T18:12:14.368Z,89.14
2019-04-07T18:14:57.531Z,89.84
2019-04-07T18:17:30.173Z,90.04
2019-04-07T18:20:05.122Z,92.52
2019-04-07T18:22:47.654Z,90.32
2019-04-07T18:25:17.945Z,91.33
2019-04-07T18:27:56.812Z,93.18
2019-04-07T18:30:34.757Z,89.24
2019-04-07T18:33:07.394Z,93.30
2019-04-07T18:35:37.752Z,94.31
2019-04-07T18:38:13.714Z,87.83
2019-04-07T18:40:49.575Z,94.87
2019-04-07T18:43:31.225Z,97.77
2019-04-07T18:46:01.227Z,96.84
2019-04-07T18:48:47.794Z,96.51
2019-04-07T18:51:33.582Z,94.63
2019-04-07T18:54:10.775Z,98.24
2019-04-07T18:56:44.061Z,100.00
2019-04-07T18:59:18.728Z,99.68
2019-04-07T19:02:04.394Z,100.00
2019-04-07T19:04:40.138Z,100.00
2019-04-07T19:07:10.929Z,100.00
2019-04-07T19:09:41.210Z,100.00
2019-04-07T19:12:28.076Z,100.00
2019-04-07T19:15:04.076Z,100.00
2019-04-07T19:17:41.784Z,100.00
2019-04-07T19:20:26.487Z,100.00
2019-04-07T19:23:02.442Z,100.00
2019-04-07T19:25:35.620Z,100.00
2019-04-07T19:28:14.484Z,100.00
2019-04-07T19:30:47.493Z,100.00
2019-04-07T19:33:33.411Z,100.00
2019-04-07T19:36:06.214Z,100.00
2019-04-07T19:38:39.855Z,100.00
2019-04-07T19:41:16.746Z,100.00
2019-04-07T19:46:37.031Z,100.00
2019-04-07T19:49:15.051Z,100.00
2019-04-07T19:52:05.754Z,100.00
2019-04-07T19:54:47.139Z,100.00
2019-04-07T19:57:30.299Z,100.00
2019-04-07T20:00:22.191Z,100.00
2019-04-07T20:02:51.843Z,100.00
2019-04-07T20:05:40.869Z,100.00
2019-04-07T20:08:20.688Z,100.00
2019-04-07T20:10:59.661Z,100.00
2019-04-07T20:13:46.702Z,100.00
2019-04-07T20:16:16.765Z,100.00
2019-04-07T20:18:46.692Z,100.00
2019-04-07T20:21:19.898Z,100.00
2019-04-07T20:23:50.162Z,100.00
2019-04-07T20:26:38.129Z,100.00
2019-04-07T20:29:13.713Z,100.00
2019-04-07T20:31:53.705Z,100.00
2019-04-07T20:34:42.853Z,100.00
2019-04-07T20:37:12.889Z,100.00
2019-04-07T20:39:43.449Z,100.00
2019-04-07T20:42:19.382Z,100.00
2019-04-07T20:45:03.657Z,100.00
2019-04-07T20:47:36.134Z,100.00
2019-04-07T20:50:19.913Z,100.00
2019-04-07T20:53:07.211Z,100.00
2019-04-07T20:55:44.068Z,100.00
2019-04-07T20:58:25.316Z,100.00
2019-04-07T21:01:12.305Z,100.00
2019-04-07T21:03:57.846Z,100.00
2019-04-07T21:06:44.200Z,100.00
2019-04-07T21:09:17.497Z,100.00
2019-04-07T21:11:51.315Z,100.00
2019-04-07T21:14:37.356Z,100.00
2019-04-07T21:17:09.333Z,100.00
2019-04-07T21:19:50.854Z,100.00
2019-04-07T21:22:29.983Z,100.00
2019-04-07T21:25:03.894Z,100.00
2019-04-07T21:27:35.876Z,100.00
2019-04-07T21:30:27.691Z,100.00
2019-04-07T21:33:06.565Z,100.00
2019-04-07T21:35:52.817Z,100.00
2019-04-07T21:38:30.196Z,100.00
2019-04-07T21:41:00.670Z,100.00
2019-04-07T21:43:46.757Z,100.00
2019-04-07T21:46:20.294Z,100.00
2019-04-07T21:48:55.030Z,100.00
2019-04-07T21:51:31.134Z,100.00
2019-04-07T21:54:07.711Z,100.00
2019-04-07T21:56:47.584Z,100.00
2019-04-07T21:59:21.490Z,100.00
2019-04-07T22:01:51.584Z,100.00
2019-04-07T22:04:26.434Z,100.00
2019-04-07T22:06:58.006Z,100.00
2019-04-07T22:09:30.801Z,100.00
2019-04-07T22:12:00.008Z,100.00
2019-04-07T22:14:29.041Z,100.00
2019-04-07T22:17:00.367Z,100.00
2019-04-07T22:19:28.611Z,100.00
2019-04-07T22:21:57.020Z,100.00
2019-04-07T22:24:26.231Z,100.00
2019-04-07T22:26:55.130Z,100.00
2019-04-07T22:29:24.498Z,100.00
2019-04-07T22:31:55.505Z,100.00
2019-04-07T22:34:24.828Z,100.00
2019-04-07T22:36:53.913Z,100.00
2019-04-07T22:39:22.611Z,100.00
2019-04-07T22:41:51.168Z,100.00
2019-04-07T22:44:20.352Z,100.00
2019-04-07T22:46:52.104Z,100.00
2019-04-07T22:49:19.836Z,100.00
2019-04-07T22:51:49.786Z,100.00
2019-04-07T22:54:18.819Z,100.00
2019-04-07T22:56:47.503Z,100.00
2019-04-07T22:59:16.195Z,100.00
2019-04-07T23:01:44.879Z,100.00
2019-04-07T23:04:14.035Z,100.00
2019-04-07T23:06:42.623Z,100.00
2019-04-07T23:09:10.913Z,100.00
2019-04-07T23:11:39.822Z,100.00
2019-04-07T23:14:08.319Z,100.00
2019-04-07T23:16:37.994Z,100.00
2019-04-07T23:19:06.802Z,100.00
2019-04-07T23:21:35.124Z,100.00
2019-04-07T23:24:03.548Z,100.00
2019-04-07T23:26:32.129Z,100.00
2019-04-07T23:29:00.676Z,100.00
2019-04-07T23:31:30.571Z,100.00
2019-04-07T23:33:58.996Z,100.00
2019-04-07T23:36:27.306Z,100.00
2019-04-07T23:38:55.925Z,100.00
2019-04-07T23:41:24.533Z,100.00
2019-04-07T23:43:52.845Z,100.00
2019-04-07T23:46:25.716Z,100.00
2019-04-07T23:48:51.815Z,100.00
2019-04-07T23:51:20.643Z,100.00
2019-04-07T23:54:10.754Z,100.00
2019-04-07T23:56:41.508Z,100.00
2019-04-07T23:59:10.799Z,100.00
